This is the latest recevied weather packets stored in our database for station/object EA1IXY-2. If no packets are shown the sender has not sent any weather packets the latest 10 day(s).
| Time | Temp. | Humidity | Pressure | Rain* | Wind** | Luminosity | Snow |
|---|---|---|---|---|---|---|---|
| 1777992380 | 37.78° C | 16% | 928.5 hPa | - | - | - | - |
| 1777991480 | 37.78° C | 15% | 928.7 hPa | - | - | - | - |
| 1777990580 | 36.67° C | 16% | 927.3 hPa | - | - | - | - |
| 1777989680 | 37.78° C | 15% | 928.8 hPa | - | - | - | - |
| 1777988780 | 37.78° C | 16% | 928.8 hPa | - | - | - | - |
| 1777987879 | 36.67° C | 16% | 927.3 hPa | - | - | - | - |
| 1777986967 | 38.33° C | 16% | 928.6 hPa | - | - | - | - |
| 1777986067 | 37.78° C | 16% | 928.5 hPa | - | - | - | - |
| 1777985167 | 37.78° C | 16% | 928.6 hPa | - | - | - | - |
| 1777984267 | 37.78° C | 16% | 928.5 hPa | - | - | - | - |
| 1777983367 | 38.33° C | 16% | 928.9 hPa | - | - | - | - |
| 1777982467 | 37.78° C | 16% | 928.9 hPa | - | - | - | - |
| 1777981567 | 37.78° C | 16% | 929 hPa | - | - | - | - |
| 1777979767 | 37.78° C | 16% | 928.6 hPa | - | - | - | - |
| 1777978867 | 38.33° C | 16% | 929 hPa | - | - | - | - |
| 1777977966 | 38.33° C | 15% | 929.1 hPa | - | - | - | - |
| 1777977066 | 37.22° C | 16% | 927.9 hPa | - | - | - | - |
| 1777976154 | 38.33° C | 15% | 929.1 hPa | - | - | - | - |
| 1777975254 | 38.33° C | 15% | 929 hPa | - | - | - | - |
| 1777974354 | 38.89° C | 15% | 929 hPa | - | - | - | - |
| 1777973454 | 38.33° C | 16% | 929 hPa | - | - | - | - |
| 1777972554 | 38.33° C | 15% | 929 hPa | - | - | - | - |
| 1777971654 | 38.89° C | 15% | 928.8 hPa | - | - | - | - |
| 1777970754 | 38.33° C | 15% | 928.9 hPa | - | - | - | - |
| 1777969854 | 38.89° C | 15% | 928.8 hPa | - | - | - | - |
* Rain since midnight (hover to see other rain measurements)
** Current wind speed in m/s (hover to see current wind gust speed)